Winter Weather Advisory Winter Weather Advisory - Caledonia (Vermont)
Click on link above to see details on the 1 NOAA advisory for zone VTZ007.

Nearby METAR Reports

 

KCDA - Lyndonville, Vermont, USA
Distance from station: ENE 11mi, 18km
Updated: Mon, 22-Jan-2018 12:55pm EST
Overcast
Overcast
 Wind from calm
Wind: Calm
Temperature: 32°F , 0°C
Dew Point: 25°F , -4°C
Humidity: 75%
Barometer: 30.20 inHg , 1022.7 hPa
Clouds: Overcast
Visibility: 10 miles , 16 km
Cloud details: Mostly cloudy 1600 ft
Overcast 2600 ft
2018/01/22 17:55 KCDA 221755Z AUTO 00000KT 10SM BKN016 OVC026 00/M04 A3020 RMK AO2 T10051040 11005 21022
K1V4 - St. Johnsbury, Vermont, USA
Distance from station: ESE 12mi, 19km
Updated: Mon, 22-Jan-2018 12:54pm EST

 
Temperature: 34°F , 1°C
Dew Point: 28°F , -2°C
Humidity: 81%
Barometer: 30.19 inHg , 1022.4 hPa
2018/01/22 17:54 K1V4 221754Z AUTO 01/M02 A3019 RMK AO1 SLP232 T00061022 10011 21006 58022
 
KMVL - Morrisville, Vermont, USA
Distance from station: W 20mi, 31km
Updated: Mon, 22-Jan-2018 12:54pm EST
Overcast
Overcast
 Wind from N
Wind: N 5 mph , 7 km/h
Temperature: 30°F , -1°C
Wind Chill: 25°F , -4°C
Dew Point: 25°F , -4°C
Humidity: 80%
Barometer: 30.23 inHg , 1023.7 hPa
Clouds: Overcast
Visibility: 10 miles , 16 km
Cloud details: Overcast 2000 ft
2018/01/22 17:54 KMVL 221754Z AUTO 01004KT 10SM OVC020 M01/M04 A3023 RMK AO2 SLP247 T10111044 11011 21017 58014
KEFK - Newport State, Vermont, USA
Distance from station: N 26mi, 42km
Updated: Mon, 22-Jan-2018 12:55pm EST
Overcast
Overcast
 Wind from N
Wind: N 5 mph , 7 km/h
Temperature: 25°F , -4°C
Wind Chill: 19°F , -7°C
Dew Point: 21°F , -6°C
Humidity: 86%
Barometer: 30.23 inHg , 1023.7 hPa
Clouds: Overcast
Visibility: 10 miles , 16 km
Cloud details: Overcast 2700 ft
2018/01/22 17:55 KEFK 221755Z AUTO 01004KT 10SM OVC027 M04/M06 A3023 RMK AO2 T10451064 11045 21058
 
KMPV - Montpelier/Barre, Vermont, USA
Distance from station: SW 27mi, 44km
Updated: Mon, 22-Jan-2018 1:03pm EST
Mist, Overcast
Mist, Overcast
 Wind from calm
Wind: Calm
Temperature: 32°F , 0°C
Dew Point: 32°F , 0°C
Humidity: 100%
Barometer: 30.23 inHg , 1023.7 hPa
Summary: Mist
Clouds: Overcast
Visibility: 5 miles , 8 km
Cloud details: Overcast 1100 ft
2018/01/22 18:03 KMPV 221803Z AUTO 00000KT 5SM BR OVC011 00/00 A3023 RMK AO2 T00000000
KHIE - Whitefield, New Hampshire, USA
Distance from station: ESE 34mi, 55km
Updated: Mon, 22-Jan-2018 12:52pm EST
Overcast
Overcast
 Wind from ENE
Wind: ENE 7 mph , 11 km/h
Temperature: 32°F , 0°C
Wind Chill: 25°F , -4°C
Dew Point: 27°F , -3°C
Humidity: 80%
Barometer: 30.21 inHg , 1023 hPa
Clouds: Overcast
Visibility: 10 miles , 16 km
Cloud details: Overcast 3300 ft
2018/01/22 17:52 KHIE 221752Z AUTO 07006KT 10SM OVC033 00/M03 A3021 RMK AO2 SLP243 T00001033 10011 21006 58014
 
KBTV - Burlington, Vermont, USA
Distance from station: W 46mi, 74km
Updated: Mon, 22-Jan-2018 1:13pm EST
Overcast
Overcast
 Wind from NNW
Wind: NNW 6 mph , 9 km/h
Temperature: 23°F , -5°C
Wind Chill: 16°F , -9°C
Dew Point: 18°F , -8°C
Humidity: 80%
Barometer: 30.25 inHg , 1024.4 hPa
Clouds: Overcast
Visibility: 10 miles , 16 km
Cloud details: Overcast 2900 ft
2018/01/22 18:13 KBTV 221813Z 33005KT 10SM OVC029 M05/M08 A3025 RMK AO2 T10501083
CWFQ - Frelighsburg, Quebec, Canada
Distance from station: NW 47mi, 75km
Updated: Mon, 22-Jan-2018 1:00pm EST

 Wind from WNW
Wind: WNW 3 mph , 6 km/h
Temperature: 27°F , -3°C
Dew Point: 19°F , -7°C
Humidity: 74%
2018/01/22 18:00 CWFQ 221800Z AUTO 30003KT M03/M07 RMK AO1 SOG 15 6018 SLP239 T10291069 50003
 
KMWN - Mount Washington, New Hampshire, USA
Distance from station: ESE 49mi, 79km
Updated: Mon, 22-Jan-2018 12:49pm EST
Light freezing, Drizzle, Freezing, Fog, Overcast
Light freezing, Drizzle, Freezing, Fog, Overcast
 Wind from SW
Wind: SW 22 mph , 35 km/h
Temperature: 18°F , -8°C
Wind Chill: 1°F , -17°C
Dew Point: 18°F , -8°C
Humidity: 100%
Summary: Light freezing, Drizzle, Freezing, Fog
Clouds: Overcast
Visibility: 0 miles , 0 km
Cloud details: Overcast 0 ft
2018/01/22 17:49 KMWN 221749Z 23019KT 0SM -FZDZ FZFG VV000 M08/M08 RMK VRY LGT GICG 60000 4/001 11068 21085
KBML - Berlin, New Hampshire, USA
Distance from station: E 51mi, 83km
Updated: Mon, 22-Jan-2018 12:52pm EST
Overcast
Overcast
 Wind from S
Wind: S 7 mph , 11 km/h
Temperature: 30°F , -1°C
Wind Chill: 23°F , -5°C
Dew Point: 25°F , -4°C
Humidity: 80%
Barometer: 30.23 inHg , 1023.7 hPa
Clouds: Overcast
Visibility: 10 miles , 16 km
Cloud details: Overcast 2000 ft
2018/01/22 17:52 KBML 221752Z AUTO 18006KT 10SM OVC020 M01/M04 A3023 RMK AO2 SLP252 T10061039 10000 21011 58013
 
KFSO - Highgate, Vermont, USA
Distance from station: NW 52mi, 84km
Updated: Mon, 22-Jan-2018 12:55pm EST
Overcast
Overcast
 Wind from NW
Wind: NW 6 mph , 9 km/h
Temperature: 23°F , -5°C
Wind Chill: 16°F , -9°C
Dew Point: 16°F , -9°C
Humidity: 74%
Barometer: 30.27 inHg , 1025.1 hPa
Clouds: Overcast
Visibility: 10 miles , 16 km
Cloud details: Mostly cloudy 2700 ft
Overcast 3900 ft
2018/01/22 17:55 KFSO 221755Z AUTO 32005KT 10SM BKN027 OVC039 M05/M09 A3027 RMK AO2 T10491086 11049 21071
CWTT - Lac Memphremagog, Quebec, Canada
Distance from station: N 53mi, 85km
Updated: Mon, 22-Jan-2018 1:00pm EST

 Wind from E
Wind: E 3 mph , 6 km/h
Temperature: 25°F , -4°C
Dew Point: 21°F , -6°C
Humidity: 86%
2018/01/22 18:00 CWTT 221800Z AUTO 08003KT M04/M06 RMK AO1 T10401055
 
K1P1 - Plymouth, New Hampshire, USA
Distance from station: SSE 55mi, 88km
Updated: Mon, 22-Jan-2018 1:15pm EST
Mist, Overcast
Mist, Overcast
 Wind from ESE
Wind: ESE 5 mph , 7 km/h
Temperature: 30°F , -1°C
Wind Chill: 25°F , -4°C
Dew Point: 28°F , -2°C
Humidity: 93%
Barometer: 30.27 inHg , 1025.1 hPa
Summary: Mist
Clouds: Overcast
Visibility: 4 miles , 6 km
Cloud details: Partly cloudy 800 ft
Overcast 2000 ft
2018/01/22 18:15 K1P1 221815Z AUTO 12004KT 4SM BR SCT008 OVC020 M01/M02 A3027 RMK AO2 T10081020
KLEB - Lebanon, New Hampshire, USA
Distance from station: S 60mi, 97km
Updated: Mon, 22-Jan-2018 12:53pm EST
Overcast
Overcast
 Wind from varies
Wind: varies 3 mph , 6 km/h
Temperature: 36°F , 2°C
Dew Point: 28°F , -2°C
Humidity: 75%
Barometer: 30.23 inHg , 1023.7 hPa
Clouds: Overcast
Visibility: 10 miles , 16 km
Cloud details: Overcast 1100 ft
2018/01/22 17:53 KLEB 221753Z VRB03KT 10SM OVC011 02/M02 A3023 RMK AO2 SLP245 T00171017 10022 21006 58010
 
KPBG - Plattsburgh Afb, New York, USA
Distance from station: W 62mi, 100km
Updated: Mon, 22-Jan-2018 1:12pm EST
Overcast
Overcast
 Wind from N
Wind: N 8 mph , 13 km/h
Temperature: 21°F , -6°C
Wind Chill: 11°F , -12°C
Dew Point: 16°F , -9°C
Humidity: 80%
Barometer: 30.25 inHg , 1024.4 hPa
Clouds: Overcast
Visibility: 10 miles , 16 km
Cloud details: Partly cloudy 1600 ft
Overcast 3400 ft
2018/01/22 18:12 KPBG 221812Z AUTO 36007KT 10SM SCT016 OVC034 M06/M09 A3025 RMK AO2 T10561089
CWQH - Lennoxville, Quebec, Canada
Distance from station: NNE 63mi, 101km
Updated: Mon, 22-Jan-2018 1:00pm EST

 Wind from NNE
Wind: NNE 8 mph , 13 km/h
Temperature: 25°F , -4°C
Wind Chill: 16°F , -9°C
Dew Point: 19°F , -7°C
Humidity: 80%
2018/01/22 18:00 CWQH 221800Z AUTO 03007KT M04/M07 RMK AO1 SOG 17 T10411070
 
CMGB - Granby, Quebec, Canada
Distance from station: NNW 65mi, 105km
Updated: Mon, 22-Jan-2018 1:00pm EST

 Wind from NNE
Wind: NNE 7 mph , 11 km/h
Temperature: 25°F , -4°C
Wind Chill: 17°F , -8°C
Dew Point: 18°F , -8°C
Humidity: 74%
2018/01/22 18:00 CMGB 221800Z AUTO 02006KT M04/M08 RMK AO1 SOG 26 8023 SLP249 T10411084
CYSC - Sherbrooke, Quebec, Canada
Distance from station: NNE 69mi, 112km
Updated: Mon, 22-Jan-2018 1:02pm EST
Light snow, Overcast
Light snow, Overcast
 Wind from NNE
Wind: NNE 7 mph , 11 km/h
Temperature: 23°F , -5°C
Wind Chill: 15°F , -9°C
Dew Point: 14°F , -10°C
Humidity: 68%
Barometer: 30.24 inHg , 1024 hPa
Summary: Light Snow
Clouds: Overcast
Visibility: 9 miles , 14 km
Cloud details: Overcast 5000 ft
2018/01/22 18:02 CYSC 221802Z AUTO 03006KT 9SM -SN OVC050 M05/M10 A3024 RMK SLP257
 
KIZG - Fryeburg, Maine, USA
Distance from station: ESE 72mi, 117km
Updated: Mon, 22-Jan-2018 1:11pm EST
Light snow, Mist, Overcast
Light snow, Mist, Overcast
 Wind from ESE
Wind: ESE 7 mph , 11 km/h
Temperature: 27°F , -3°C
Wind Chill: 19°F , -7°C
Dew Point: 25°F , -4°C
Humidity: 93%
Barometer: 30.33 inHg , 1027.1 hPa
Summary: Light snow, Mist
Clouds: Overcast
Visibility: 5 miles , 8 km
Cloud details: Mostly cloudy 1100 ft
Overcast 3600 ft
2018/01/22 18:11 KIZG 221811Z AUTO 11006KT 5SM -SN BR BKN011 OVC036 M03/M04 A3033 RMK AO2 SNB11 P0000 T10331039